createdAt,value
2018-07-30T00:03:29.017Z,23.80
2018-07-30T00:05:57.793Z,23.70
2018-07-30T00:08:26.633Z,23.70
2018-07-30T00:10:55.405Z,23.70
2018-07-30T00:13:24.181Z,23.70
2018-07-30T00:15:53.146Z,23.70
2018-07-30T00:18:22.256Z,23.60
2018-07-30T00:20:51.033Z,23.60
2018-07-30T00:23:19.884Z,23.60
2018-07-30T00:25:48.825Z,23.70
2018-07-30T00:28:17.637Z,23.70
2018-07-30T00:30:46.449Z,23.60
2018-07-30T00:33:15.214Z,23.60
2018-07-30T00:35:44.035Z,23.60
2018-07-30T00:40:41.306Z,23.60
2018-07-30T00:43:10.057Z,23.60
2018-07-30T00:45:38.829Z,23.60
2018-07-30T00:48:07.675Z,23.60
2018-07-30T00:50:36.452Z,23.60
2018-07-30T00:55:33.718Z,23.60
2018-07-30T00:58:02.477Z,23.50
2018-07-30T01:00:31.217Z,23.50
2018-07-30T01:03:00.010Z,23.50
2018-07-30T01:05:28.761Z,23.60
2018-07-30T01:07:57.652Z,23.50
2018-07-30T01:10:26.482Z,23.60
2018-07-30T01:12:55.274Z,23.60
2018-07-30T01:15:24.047Z,23.60
2018-07-30T01:25:18.378Z,23.60
2018-07-30T01:27:47.649Z,23.50
2018-07-30T01:30:16.405Z,23.50
2018-07-30T01:32:45.421Z,23.50
2018-07-30T01:35:14.329Z,23.50
2018-07-30T01:37:43.332Z,23.50
2018-07-30T01:40:12.285Z,23.50
2018-07-30T01:42:41.169Z,23.50
2018-07-30T01:45:09.960Z,23.50
2018-07-30T01:47:38.845Z,23.40
2018-07-30T01:50:07.841Z,23.40
2018-07-30T01:52:36.593Z,23.40
2018-07-30T01:57:33.955Z,23.40
2018-07-30T02:00:02.834Z,23.40
2018-07-30T02:02:33.097Z,23.30
2018-07-30T02:05:01.874Z,23.30
2018-07-30T02:07:30.671Z,23.30
2018-07-30T02:09:59.442Z,23.30
2018-07-30T02:14:56.717Z,23.30
2018-07-30T02:19:54.129Z,23.30
2018-07-30T02:22:22.952Z,23.30
2018-07-30T02:24:51.849Z,23.30
2018-07-30T02:27:20.610Z,23.20
2018-07-30T02:29:49.375Z,23.20
2018-07-30T02:32:18.174Z,23.20
2018-07-30T02:34:47.049Z,23.20
2018-07-30T02:37:15.806Z,23.10
2018-07-30T02:39:44.567Z,23.00
2018-07-30T02:42:13.377Z,23.00
2018-07-30T02:44:42.142Z,23.00
2018-07-30T02:47:10.974Z,22.90
2018-07-30T02:52:08.376Z,22.90
2018-07-30T02:54:37.222Z,22.80
2018-07-30T02:57:06.007Z,22.80
2018-07-30T02:59:34.739Z,22.90
2018-07-30T03:02:03.517Z,22.90
2018-07-30T03:04:32.285Z,22.80
2018-07-30T03:07:01.089Z,22.80
2018-07-30T03:09:30.023Z,22.90
2018-07-30T03:11:58.790Z,22.90
2018-07-30T03:14:27.585Z,22.80
2018-07-30T03:16:56.442Z,22.90
2018-07-30T03:21:53.913Z,22.80
2018-07-30T03:26:51.290Z,22.80
2018-07-30T03:31:48.670Z,22.80
2018-07-30T03:34:17.437Z,22.90
2018-07-30T03:39:14.918Z,22.80
2018-07-30T03:44:12.281Z,22.90
2018-07-30T03:49:09.693Z,22.80
2018-07-30T03:54:07.127Z,22.80
2018-07-30T03:56:35.900Z,22.80
2018-07-30T03:59:04.694Z,22.80
2018-07-30T04:01:33.522Z,22.90
2018-07-30T04:04:02.308Z,22.90
2018-07-30T04:06:31.178Z,22.90
2018-07-30T04:09:00.107Z,23.00
2018-07-30T04:11:28.883Z,23.00
2018-07-30T04:13:57.649Z,23.00
2018-07-30T04:18:54.989Z,23.00
2018-07-30T04:21:23.749Z,23.00
2018-07-30T04:23:52.564Z,23.00
2018-07-30T04:26:21.353Z,23.10
2018-07-30T04:28:50.181Z,23.00
2018-07-30T04:31:19.069Z,23.10
2018-07-30T04:36:16.828Z,23.20
2018-07-30T04:38:45.658Z,23.10
2018-07-30T04:41:14.617Z,23.00
2018-07-30T04:43:43.408Z,23.10
2018-07-30T04:46:12.195Z,23.20
2018-07-30T04:48:41.136Z,23.30
2018-07-30T04:51:10.003Z,23.30
2018-07-30T04:56:07.503Z,23.40
2018-07-30T04:58:36.254Z,23.40
2018-07-30T05:01:05.042Z,23.40
2018-07-30T05:03:33.829Z,23.50
2018-07-30T05:06:02.594Z,23.50
2018-07-30T05:08:31.509Z,23.50
2018-07-30T05:11:00.362Z,23.50
2018-07-30T05:13:29.135Z,23.70
2018-07-30T05:15:58.010Z,23.60
2018-07-30T05:18:26.760Z,23.70
2018-07-30T05:20:55.620Z,23.70
2018-07-30T05:23:24.471Z,23.60
2018-07-30T05:25:53.261Z,23.70
2018-07-30T05:28:22.040Z,23.70
2018-07-30T05:30:51.109Z,23.70
2018-07-30T05:33:19.885Z,23.80
2018-07-30T05:35:48.786Z,23.80
2018-07-30T05:38:17.745Z,23.80
2018-07-30T05:40:46.553Z,23.90
2018-07-30T05:43:15.397Z,23.90
2018-07-30T05:45:44.157Z,23.90
2018-07-30T05:48:13.253Z,23.90
2018-07-30T05:53:10.534Z,23.90
2018-07-30T05:58:08.090Z,24.00
2018-07-30T06:00:36.957Z,24.10
2018-07-30T06:03:05.949Z,24.00
2018-07-30T06:05:34.827Z,24.10
2018-07-30T06:08:03.565Z,24.10
2018-07-30T06:10:32.342Z,24.00
2018-07-30T06:13:01.153Z,24.10
2018-07-30T06:17:58.432Z,24.30
2018-07-30T06:22:55.921Z,24.30
2018-07-30T06:25:24.830Z,24.40
2018-07-30T06:27:53.645Z,24.50
2018-07-30T06:30:22.681Z,24.50
2018-07-30T06:32:51.504Z,24.60
2018-07-30T06:35:20.521Z,24.60
2018-07-30T06:37:49.323Z,24.70
2018-07-30T06:40:18.078Z,24.70
2018-07-30T06:42:46.859Z,24.80
2018-07-30T06:45:15.771Z,24.80
2018-07-30T06:47:44.517Z,24.80
2018-07-30T06:50:13.303Z,24.70
2018-07-30T06:52:42.090Z,24.70
2018-07-30T06:57:39.658Z,24.80
2018-07-30T07:02:38.573Z,24.70
2018-07-30T07:07:36.617Z,24.60
2018-07-30T07:10:07.613Z,24.60
2018-07-30T07:12:36.646Z,24.50
2018-07-30T07:15:06.085Z,24.50
2018-07-30T07:17:34.862Z,24.50
2018-07-30T07:20:03.694Z,24.40
2018-07-30T07:22:32.478Z,24.40
2018-07-30T07:27:29.870Z,24.50
2018-07-30T07:29:58.973Z,24.60
2018-07-30T07:32:27.742Z,24.70
2018-07-30T07:34:56.511Z,24.80
2018-07-30T07:37:25.649Z,25.00
2018-07-30T07:39:54.753Z,25.10
2018-07-30T07:42:23.545Z,25.30
2018-07-30T07:44:52.367Z,25.40
2018-07-30T07:47:21.145Z,25.50
2018-07-30T07:49:50.757Z,25.60
2018-07-30T07:52:19.658Z,25.70
2018-07-30T07:54:48.421Z,25.80
2018-07-30T07:57:17.258Z,25.80
2018-07-30T08:02:14.578Z,26.20
2018-07-30T08:04:43.459Z,26.30
2018-07-30T08:07:12.231Z,26.40
2018-07-30T08:09:41.280Z,26.40
2018-07-30T08:12:10.094Z,26.50
2018-07-30T08:17:07.401Z,26.60
2018-07-30T08:19:36.178Z,26.60
2018-07-30T08:22:04.944Z,26.70
2018-07-30T08:24:33.711Z,26.70
2018-07-30T08:29:31.206Z,27.00
2018-07-30T08:31:59.986Z,27.00
2018-07-30T08:34:28.807Z,27.00
2018-07-30T08:36:57.665Z,27.00
2018-07-30T08:41:55.042Z,27.00
2018-07-30T08:44:23.901Z,26.90
2018-07-30T08:46:52.697Z,26.90
2018-07-30T08:51:49.978Z,27.20
2018-07-30T08:56:47.448Z,27.30
2018-07-30T08:59:16.225Z,27.50
2018-07-30T09:01:45.010Z,27.50
2018-07-30T09:04:13.789Z,27.50
2018-07-30T09:06:42.557Z,27.60
2018-07-30T09:09:11.668Z,27.70
2018-07-30T09:11:40.706Z,27.70
2018-07-30T09:14:09.593Z,27.70
2018-07-30T09:19:06.988Z,28.00
2018-07-30T09:21:35.796Z,28.10
2018-07-30T09:24:04.689Z,28.20
2018-07-30T09:26:33.490Z,28.30
2018-07-30T09:29:02.514Z,28.30
2018-07-30T09:31:31.309Z,28.30
2018-07-30T09:34:00.155Z,28.30
2018-07-30T09:36:29.056Z,28.20
2018-07-30T09:38:57.913Z,28.30
2018-07-30T09:41:26.754Z,28.40
2018-07-30T09:43:55.585Z,28.60
2018-07-30T09:46:24.366Z,28.50
2018-07-30T09:51:21.702Z,28.60
2018-07-30T09:53:50.726Z,28.70
2018-07-30T09:58:48.156Z,28.70
2018-07-30T10:01:22.374Z,28.60
2018-07-30T10:03:51.247Z,28.50
2018-07-30T10:06:20.048Z,28.70
2018-07-30T10:11:17.244Z,29.10
2018-07-30T10:13:46.081Z,29.30
2018-07-30T10:16:14.825Z,29.10
2018-07-30T10:18:43.852Z,29.20
2018-07-30T10:21:12.569Z,29.40
2018-07-30T10:23:41.353Z,29.60
2018-07-30T10:26:10.168Z,29.70
2018-07-30T10:28:39.010Z,29.90
2018-07-30T10:31:08.097Z,30.20
2018-07-30T10:36:05.430Z,30.40
2018-07-30T10:38:34.250Z,30.60
2018-07-30T10:43:31.650Z,30.80
2018-07-30T10:46:00.453Z,30.90
2018-07-30T10:48:29.392Z,30.90
2018-07-30T10:50:58.157Z,30.90
2018-07-30T10:53:26.960Z,30.90
2018-07-30T10:55:55.821Z,30.80
2018-07-30T10:58:24.703Z,30.80
2018-07-30T11:03:22.712Z,31.20
2018-07-30T11:05:51.790Z,31.20
2018-07-30T11:08:20.574Z,31.20
2018-07-30T11:10:49.377Z,31.50
2018-07-30T11:13:18.158Z,31.90
2018-07-30T11:15:46.948Z,31.80
2018-07-30T11:18:15.847Z,31.80
2018-07-30T11:20:44.589Z,31.70
2018-07-30T11:25:41.824Z,31.80
2018-07-30T11:28:10.718Z,32.00
2018-07-30T11:30:39.476Z,32.00
2018-07-30T11:33:08.238Z,32.60
2018-07-30T11:38:05.777Z,33.30
2018-07-30T11:40:34.592Z,33.40
2018-07-30T11:43:03.379Z,33.50
2018-07-30T11:48:00.721Z,33.10
2018-07-30T11:50:29.535Z,33.00
2018-07-30T11:52:58.385Z,32.90
2018-07-30T11:55:27.437Z,33.00
2018-07-30T11:57:56.213Z,32.90
2018-07-30T12:02:54.000Z,33.20
2018-07-30T12:07:51.412Z,34.10
2018-07-30T12:10:20.630Z,33.90
2018-07-30T12:12:49.529Z,33.50
2018-07-30T12:15:18.339Z,33.80
2018-07-30T12:17:47.141Z,33.70
2018-07-30T12:20:15.941Z,33.50
2018-07-30T12:22:44.750Z,33.20
2018-07-30T12:25:13.725Z,33.00
2018-07-30T12:27:42.554Z,33.00
2018-07-30T12:30:11.553Z,32.70
2018-07-30T12:32:40.561Z,32.80
2018-07-30T12:35:09.338Z,32.70
2018-07-30T12:37:38.101Z,32.70
2018-07-30T12:40:07.137Z,32.80
2018-07-30T12:47:33.205Z,32.80
2018-07-30T12:50:02.081Z,33.00
2018-07-30T12:52:30.961Z,33.00
2018-07-30T12:54:59.786Z,32.90
2018-07-30T12:59:57.025Z,32.80
2018-07-30T13:02:25.797Z,32.60
2018-07-30T13:04:54.726Z,32.50
2018-07-30T13:07:23.563Z,32.40
2018-07-30T13:09:52.361Z,32.40
2018-07-30T13:12:21.299Z,32.40
2018-07-30T13:14:50.057Z,32.50
2018-07-30T13:17:18.881Z,32.60
2018-07-30T13:19:47.658Z,32.70
2018-07-30T13:22:16.444Z,32.90
2018-07-30T13:24:45.212Z,33.00
2018-07-30T13:27:14.105Z,33.30
2018-07-30T13:29:42.907Z,33.40
2018-07-30T13:32:11.759Z,33.50
2018-07-30T13:34:40.501Z,33.60
2018-07-30T13:37:09.295Z,33.80
2018-07-30T13:39:38.077Z,33.80
2018-07-30T13:44:35.514Z,34.30
2018-07-30T13:49:34.669Z,35.20
2018-07-30T13:52:03.989Z,35.50
2018-07-30T13:54:32.800Z,35.60
2018-07-30T13:57:01.802Z,35.80
2018-07-30T13:59:30.695Z,36.00
2018-07-30T14:01:59.481Z,35.80
2018-07-30T14:04:28.301Z,35.90
2018-07-30T14:06:57.122Z,36.00
2018-07-30T14:09:25.906Z,35.90
2018-07-30T14:14:23.189Z,35.10
2018-07-30T14:16:52.007Z,34.90
2018-07-30T14:19:20.858Z,34.90
2018-07-30T14:21:49.659Z,35.20
2018-07-30T14:24:18.505Z,35.60
2018-07-30T14:26:47.309Z,35.60
2018-07-30T14:29:16.158Z,36.00
2018-07-30T14:31:44.908Z,36.40
2018-07-30T14:34:13.713Z,36.30
2018-07-30T14:36:42.519Z,35.70
2018-07-30T14:39:11.341Z,35.90
2018-07-30T14:41:40.378Z,35.60
2018-07-30T14:46:37.665Z,35.60
2018-07-30T14:49:06.697Z,35.60
2018-07-30T14:51:35.520Z,34.80
2018-07-30T14:54:04.426Z,34.50
2018-07-30T14:59:01.827Z,34.10
2018-07-30T15:08:56.077Z,33.40
2018-07-30T15:11:24.906Z,33.20
2018-07-30T15:13:53.768Z,33.10
2018-07-30T15:16:22.625Z,33.00
2018-07-30T15:23:48.449Z,32.70
2018-07-30T15:28:46.110Z,32.80
2018-07-30T15:31:14.933Z,33.00
2018-07-30T15:33:43.694Z,33.60
2018-07-30T15:36:12.445Z,34.00
2018-07-30T15:38:41.249Z,33.70
2018-07-30T15:41:10.214Z,33.40
2018-07-30T15:43:39.280Z,33.50
2018-07-30T15:46:08.304Z,33.90
2018-07-30T15:48:37.053Z,34.10
2018-07-30T15:53:34.588Z,34.30
2018-07-30T15:56:03.421Z,34.10
2018-07-30T16:01:00.785Z,34.10
2018-07-30T16:03:29.856Z,34.00
2018-07-30T16:05:58.617Z,33.80
2018-07-30T16:08:27.506Z,34.10
2018-07-30T16:10:56.449Z,34.10
2018-07-30T16:13:25.601Z,34.50
2018-07-30T16:15:54.413Z,34.80
2018-07-30T16:18:23.289Z,34.40
2018-07-30T16:20:52.141Z,33.90
2018-07-30T16:23:21.077Z,33.40
2018-07-30T16:25:49.762Z,33.10
2018-07-30T16:28:18.808Z,33.20
2018-07-30T16:30:47.623Z,33.10
2018-07-30T16:33:16.905Z,33.20
2018-07-30T16:35:45.801Z,32.80
2018-07-30T16:38:14.613Z,32.50
2018-07-30T16:40:43.501Z,32.90
2018-07-30T16:43:12.329Z,33.00
2018-07-30T16:45:41.115Z,33.40
2018-07-30T16:48:09.873Z,33.80
2018-07-30T16:50:38.729Z,33.50
2018-07-30T16:53:07.554Z,33.40
2018-07-30T16:55:36.450Z,33.70
2018-07-30T16:58:05.556Z,33.90
2018-07-30T17:00:34.569Z,33.60
2018-07-30T17:03:03.345Z,33.60
2018-07-30T17:05:32.162Z,33.70
2018-07-30T17:08:01.053Z,33.50
2018-07-30T17:10:29.885Z,33.50
2018-07-30T17:12:58.694Z,33.60
2018-07-30T17:15:27.488Z,33.40
2018-07-30T17:17:56.849Z,33.20
2018-07-30T17:22:54.270Z,32.40
2018-07-30T17:25:23.029Z,32.20
2018-07-30T17:27:51.883Z,32.10
2018-07-30T17:30:20.649Z,32.00
2018-07-30T17:32:49.452Z,31.70
2018-07-30T17:35:18.313Z,31.60
2018-07-30T17:37:48.216Z,31.60
2018-07-30T17:40:17.197Z,31.30
2018-07-30T17:42:46.122Z,31.10
2018-07-30T17:45:14.932Z,31.00
2018-07-30T17:47:44.437Z,30.80
2018-07-30T17:50:13.227Z,30.70
2018-07-30T17:52:42.276Z,30.70
2018-07-30T17:55:11.181Z,30.60
2018-07-30T17:57:40.158Z,30.40
2018-07-30T18:00:09.790Z,30.30
2018-07-30T18:02:38.594Z,30.30
2018-07-30T18:05:07.823Z,30.00
2018-07-30T18:07:36.603Z,30.00
2018-07-30T18:10:05.769Z,29.90
2018-07-30T18:12:34.606Z,29.80
2018-07-30T18:15:03.481Z,29.60
2018-07-30T18:17:32.263Z,29.60
2018-07-30T18:20:01.121Z,29.70
2018-07-30T18:22:30.001Z,30.00
2018-07-30T18:24:58.896Z,30.10
2018-07-30T18:27:27.767Z,30.30
2018-07-30T18:29:56.549Z,30.90
2018-07-30T18:32:25.304Z,30.80
2018-07-30T18:34:54.153Z,30.20
2018-07-30T18:37:22.973Z,29.90
2018-07-30T18:39:51.724Z,29.70
2018-07-30T18:42:20.542Z,29.50
2018-07-30T18:44:49.377Z,29.40
2018-07-30T18:47:18.152Z,29.40
2018-07-30T18:49:46.970Z,29.40
2018-07-30T18:52:15.726Z,29.20
2018-07-30T18:54:44.535Z,29.10
2018-07-30T18:57:13.472Z,28.90
2018-07-30T18:59:42.237Z,28.70
2018-07-30T19:02:11.111Z,28.50
2018-07-30T19:04:40.906Z,28.50
2018-07-30T19:07:09.874Z,28.40
2018-07-30T19:09:38.785Z,28.40
2018-07-30T19:14:36.177Z,28.30
2018-07-30T19:17:04.953Z,28.10
2018-07-30T19:19:33.733Z,28.10
2018-07-30T19:22:02.606Z,28.00
2018-07-30T19:24:31.356Z,28.00
2018-07-30T19:27:00.149Z,27.90
2018-07-30T19:29:28.912Z,27.70
2018-07-30T19:31:57.730Z,27.60
2018-07-30T19:34:26.481Z,27.60
2018-07-30T19:36:55.268Z,27.60
2018-07-30T19:39:24.058Z,27.40
2018-07-30T19:41:53.389Z,27.50
2018-07-30T19:44:22.223Z,27.30
2018-07-30T19:46:50.925Z,27.30
2018-07-30T19:49:19.689Z,27.40
2018-07-30T19:51:48.469Z,27.30
2018-07-30T19:54:17.242Z,27.20
2018-07-30T19:56:45.996Z,27.20
2018-07-30T19:59:14.881Z,27.10
2018-07-30T20:01:43.641Z,27.10
2018-07-30T20:04:12.405Z,27.10
2018-07-30T20:06:41.358Z,27.10
2018-07-30T20:09:11.733Z,27.00
2018-07-30T20:11:40.506Z,27.00
2018-07-30T20:14:09.253Z,27.00
2018-07-30T20:16:38.029Z,26.90
2018-07-30T20:21:35.413Z,26.80
2018-07-30T20:29:01.265Z,26.80
2018-07-30T20:33:59.046Z,26.60
2018-07-30T20:38:57.993Z,26.50
2018-07-30T20:41:26.838Z,26.50
2018-07-30T20:46:24.070Z,26.40
2018-07-30T20:48:52.873Z,26.40
2018-07-30T20:51:21.649Z,26.30
2018-07-30T20:53:50.622Z,26.20
2018-07-30T21:03:44.865Z,26.20
2018-07-30T21:06:13.793Z,26.20
2018-07-30T21:08:42.585Z,26.10
2018-07-30T21:13:39.919Z,26.20
2018-07-30T21:16:08.733Z,26.10
2018-07-30T21:18:37.521Z,26.10
2018-07-30T21:21:06.345Z,26.00
2018-07-30T21:28:32.319Z,25.90
2018-07-30T21:31:01.100Z,25.90
2018-07-30T21:33:30.177Z,25.90
2018-07-30T21:35:59.037Z,25.90
2018-07-30T21:38:27.817Z,25.90
2018-07-30T21:40:56.570Z,25.90
2018-07-30T21:43:25.329Z,25.90
2018-07-30T21:48:22.805Z,25.90
2018-07-30T21:50:51.581Z,25.90
2018-07-30T21:53:20.734Z,25.90
2018-07-30T21:58:18.311Z,25.90
2018-07-30T22:03:20.930Z,25.90
2018-07-30T22:05:55.661Z,25.90
2018-07-30T22:08:24.602Z,25.90
2018-07-30T22:13:21.881Z,25.90
2018-07-30T22:18:19.451Z,25.90
2018-07-30T22:23:17.056Z,25.80
2018-07-30T22:25:46.171Z,25.80
2018-07-30T22:28:15.134Z,25.80
2018-07-30T22:30:44.115Z,25.70
2018-07-30T22:35:41.273Z,25.70
2018-07-30T22:40:38.502Z,25.70
2018-07-30T22:43:07.876Z,25.70
2018-07-30T22:45:36.665Z,25.70
2018-07-30T22:48:05.541Z,25.60
2018-07-30T22:50:34.513Z,25.60
2018-07-30T22:55:31.955Z,25.60
2018-07-30T22:58:00.749Z,25.60
2018-07-30T23:00:29.570Z,25.60
2018-07-30T23:02:58.316Z,25.50
2018-07-30T23:05:27.109Z,25.50
2018-07-30T23:07:55.882Z,25.50
2018-07-30T23:10:24.674Z,25.50
2018-07-30T23:12:53.529Z,25.60
2018-07-30T23:15:22.281Z,25.50
2018-07-30T23:17:51.130Z,25.50
2018-07-30T23:20:19.920Z,25.50
2018-07-30T23:22:48.689Z,25.50
2018-07-30T23:25:17.445Z,25.40
2018-07-30T23:27:46.242Z,25.50
2018-07-30T23:30:15.198Z,25.40
2018-07-30T23:32:43.977Z,25.40
2018-07-30T23:35:12.731Z,25.40
2018-07-30T23:37:41.517Z,25.40
2018-07-30T23:40:10.297Z,25.30
2018-07-30T23:45:07.738Z,25.30
2018-07-30T23:47:36.492Z,25.30
2018-07-30T23:50:05.398Z,25.40
2018-07-30T23:52:34.184Z,25.30
2018-07-30T23:55:03.043Z,25.40
2018-07-30T23:57:31.713Z,25.30
